Time;durP1;ratioP1;P1;durP2;ratioP2;P2;SDS_P1;SDS_P2;PMS_P1;PMS_P2;Temp;Humidity;BMP_temperature;BMP_pressure;BME280_temperature;BME280_humidity;BME280_pressure;Samples;Min_cycle;Max_cycle;Signal;HPM_P1;HPM_P2
2023/05/12 00:01:26;;;;;;;13.57;3.00;;;;;;;11.65;42.66;100819.25;4214775;28;21403;-65
2023/05/12 00:03:52;;;;;;;10.73;2.97;;;;;;;11.58;42.94;100824.38;4217497;28;20227;-61
2023/05/12 00:06:20;;;;;;;6.43;2.93;;;;;;;11.60;43.21;100835.09;4196954;28;20239;-61
2023/05/12 00:08:46;;;;;;;12.33;3.00;;;;;;;11.55;42.82;100832.84;4205098;28;20316;-59
2023/05/12 00:11:13;;;;;;;7.30;3.00;;;;;;;11.53;42.83;100834.81;4212344;28;20330;-62
2023/05/12 00:13:39;;;;;;;9.47;3.07;;;;;;;11.47;43.46;100832.69;4210215;28;20241;-64
2023/05/12 00:16:06;;;;;;;7.37;3.13;;;;;;;11.44;43.42;100832.13;4213368;28;20436;-59
2023/05/12 00:18:32;;;;;;;5.57;2.67;;;;;;;11.42;43.25;100826.81;4214874;28;20308;-61
2023/05/12 00:21:00;;;;;;;7.93;3.10;;;;;;;11.40;43.03;100832.41;4214769;28;20252;-62
2023/05/12 00:23:26;;;;;;;6.53;2.77;;;;;;;11.40;43.17;100834.25;4218359;28;21191;-58
2023/05/12 00:25:53;;;;;;;5.20;2.97;;;;;;;11.31;42.91;100827.81;4218778;28;20794;-61
2023/05/12 00:28:19;;;;;;;10.17;3.30;;;;;;;11.28;43.47;100835.38;4212180;28;20362;-60
2023/05/12 00:30:46;;;;;;;8.57;2.80;;;;;;;11.25;43.53;100839.25;4209242;28;20245;-63
2023/05/12 00:33:12;;;;;;;5.50;2.83;;;;;;;11.30;43.34;100830.69;4214111;28;20245;-62
2023/05/12 00:35:39;;;;;;;4.80;2.67;;;;;;;11.29;43.10;100842.53;4223067;28;20365;-58
2023/05/12 00:38:05;;;;;;;7.77;3.10;;;;;;;11.27;43.24;100837.25;4211398;28;20236;-59
2023/05/12 00:40:32;;;;;;;8.67;3.33;;;;;;;11.23;43.56;100846.66;4214967;28;20509;-60
2023/05/12 00:42:58;;;;;;;5.10;2.67;;;;;;;11.21;43.31;100845.97;4211877;28;21729;-60
2023/05/12 00:45:25;;;;;;;8.53;2.90;;;;;;;11.24;43.13;100853.78;4216160;28;20308;-60
2023/05/12 00:47:52;;;;;;;5.43;3.00;;;;;;;11.19;43.34;100854.22;4214784;28;20563;-60
2023/05/12 00:50:19;;;;;;;12.10;2.93;;;;;;;11.17;43.42;100847.22;4222342;28;20295;-60
2023/05/12 00:52:49;;;;;;;7.60;3.10;;;;;;;11.18;43.37;100857.06;4210565;28;21283;-59
2023/05/12 00:55:16;;;;;;;10.47;2.93;;;;;;;11.15;43.37;100855.50;4205048;28;22346;-60
2023/05/12 00:57:43;;;;;;;6.93;2.57;;;;;;;11.08;43.94;100857.06;4216294;28;20422;-61
2023/05/12 01:00:10;;;;;;;8.37;3.13;;;;;;;11.01;43.76;100861.31;4220363;28;21114;-63
2023/05/12 01:02:38;;;;;;;6.83;2.97;;;;;;;11.01;44.00;100854.03;4212579;28;20233;-60
2023/05/12 01:05:05;;;;;;;13.53;2.97;;;;;;;11.04;43.72;100867.31;4213129;28;21023;-61
2023/05/12 01:07:32;;;;;;;10.63;3.33;;;;;;;11.02;43.80;100854.91;4205356;28;20247;-61
2023/05/12 01:09:58;;;;;;;6.33;2.80;;;;;;;10.94;44.22;100851.06;4203283;28;21597;-60
2023/05/12 01:12:25;;;;;;;6.57;2.83;;;;;;;10.94;43.81;100861.88;4219837;28;20319;-60
2023/05/12 01:14:54;;;;;;;8.87;3.17;;;;;;;10.86;43.95;100858.16;4210427;28;20350;-60
2023/05/12 01:17:27;;;;;;;8.80;2.80;;;;;;;10.98;43.83;100867.00;4215530;28;20232;-59
2023/05/12 01:19:59;;;;;;;8.37;2.73;;;;;;;10.88;44.29;100864.28;4210057;28;21685;-62
2023/05/12 01:22:30;;;;;;;9.53;3.00;;;;;;;10.89;44.21;100863.28;4201315;28;22021;-59
2023/05/12 01:24:58;;;;;;;10.33;2.80;;;;;;;10.83;44.52;100866.56;4217616;28;21538;-61
2023/05/12 01:27:26;;;;;;;8.90;2.53;;;;;;;10.83;44.12;100871.97;4195898;28;20255;-61
2023/05/12 01:29:55;;;;;;;7.17;2.93;;;;;;;10.82;44.22;100867.56;4206553;28;20236;-60
2023/05/12 01:32:22;;;;;;;12.00;3.30;;;;;;;10.74;44.60;100866.41;4206835;28;20350;-60
2023/05/12 01:34:52;;;;;;;9.07;2.97;;;;;;;10.72;44.59;100865.66;4209412;28;20243;-59
2023/05/12 01:37:18;;;;;;;7.03;3.07;;;;;;;10.68;44.81;100863.38;4209926;28;20445;-61
2023/05/12 01:39:45;;;;;;;8.50;3.00;;;;;;;10.66;44.78;100866.22;4215035;28;20236;-59
2023/05/12 01:42:11;;;;;;;7.30;2.90;;;;;;;10.61;44.76;100861.22;4214370;28;20306;-59
2023/05/12 01:44:38;;;;;;;6.30;2.80;;;;;;;10.58;45.04;100869.59;4189211;28;20255;-62
2023/05/12 01:47:08;;;;;;;5.80;2.47;;;;;;;10.60;44.87;100873.03;4210970;28;20253;-63
2023/05/12 01:49:35;;;;;;;9.03;3.10;;;;;;;10.56;45.25;100878.84;4202502;28;22388;-61
2023/05/12 01:52:02;;;;;;;11.37;2.80;;;;;;;10.52;45.26;100872.00;4211544;28;20279;-62
2023/05/12 01:54:28;;;;;;;11.00;3.07;;;;;;;10.51;45.28;100873.84;4204536;28;20260;-60
2023/05/12 01:56:55;;;;;;;7.10;3.07;;;;;;;10.52;45.80;100880.97;4200456;28;20274;-60
2023/05/12 01:59:21;;;;;;;12.60;2.93;;;;;;;10.48;45.56;100873.25;4218495;28;20304;-62
2023/05/12 02:01:48;;;;;;;7.57;2.80;;;;;;;10.43;45.58;100881.78;4201226;28;21351;-63
2023/05/12 02:04:14;;;;;;;11.07;3.20;;;;;;;10.43;45.73;100879.97;4201172;28;23418;-61
2023/05/12 02:06:41;;;;;;;5.30;2.80;;;;;;;10.41;45.44;100876.53;4207059;28;20237;-61
2023/05/12 02:09:08;;;;;;;9.43;2.53;;;;;;;10.43;45.55;100866.44;4212154;28;20566;-61
2023/05/12 02:11:35;;;;;;;8.53;2.70;;;;;;;10.42;45.50;100878.25;4222272;28;20410;-60
2023/05/12 02:14:02;;;;;;;9.50;2.80;;;;;;;10.41;45.59;100871.09;4219450;28;20466;-62
2023/05/12 02:16:28;;;;;;;8.83;2.73;;;;;;;10.41;45.87;100876.53;4216384;28;20237;-63
2023/05/12 02:18:55;;;;;;;6.70;2.90;;;;;;;10.33;46.16;100870.91;4210906;28;21657;-59
2023/05/12 02:21:22;;;;;;;5.30;2.67;;;;;;;10.27;46.00;100871.44;4222471;28;20294;-59
2023/05/12 02:23:48;;;;;;;6.80;2.80;;;;;;;10.29;45.85;100866.75;4214177;28;20740;-60
2023/05/12 02:26:15;;;;;;;7.20;2.80;;;;;;;10.22;46.12;100874.53;4207405;28;20244;-62
2023/05/12 02:28:41;;;;;;;12.40;2.70;;;;;;;10.20;46.21;100879.22;4215122;28;20236;-61
2023/05/12 02:31:08;;;;;;;5.70;2.80;;;;;;;10.20;46.27;100881.94;4206191;28;23752;-62
2023/05/12 02:33:35;;;;;;;9.47;2.57;;;;;;;10.25;46.01;100876.13;4210050;28;22949;-59
2023/05/12 02:36:02;;;;;;;7.37;3.00;;;;;;;10.18;46.23;100885.75;4220577;28;25203;-60
2023/05/12 02:38:28;;;;;;;8.57;2.80;;;;;;;10.22;46.18;100876.41;4226830;28;20239;-59
2023/05/12 02:40:55;;;;;;;9.40;3.17;;;;;;;10.17;46.30;100881.34;4212096;28;20623;-59
2023/05/12 02:43:21;;;;;;;9.30;2.97;;;;;;;10.15;46.44;100885.06;4226746;28;20340;-58
2023/05/12 02:45:48;;;;;;;8.90;2.70;;;;;;;10.14;46.39;100882.47;4226170;28;20238;-62
2023/05/12 02:48:14;;;;;;;6.27;2.50;;;;;;;10.13;46.38;100896.97;4213253;28;20236;-62
2023/05/12 02:50:42;;;;;;;6.10;2.70;;;;;;;10.13;46.38;100888.88;4223009;28;21834;-62
2023/05/12 02:53:08;;;;;;;6.47;3.00;;;;;;;10.17;46.36;100889.47;4209892;28;20309;-59
2023/05/12 02:55:35;;;;;;;6.90;2.70;;;;;;;10.13;46.39;100896.97;4224693;28;20326;-62
2023/05/12 02:58:01;;;;;;;7.93;2.50;;;;;;;10.20;46.20;100895.47;4225072;28;21739;-58
2023/05/12 03:00:28;;;;;;;8.27;3.00;;;;;;;10.22;46.16;100901.59;4236209;28;21166;-60
2023/05/12 03:02:54;;;;;;;6.00;2.80;;;;;;;10.17;46.40;100890.34;4229682;28;20247;-59
2023/05/12 03:05:21;;;;;;;5.60;2.80;;;;;;;10.14;46.43;100905.00;4235971;28;20243;-59
2023/05/12 03:07:50;;;;;;;5.83;2.70;;;;;;;10.17;46.45;100892.16;4215522;28;20263;-61
2023/05/12 03:10:17;;;;;;;7.80;2.97;;;;;;;10.15;46.29;100893.19;4213463;28;20937;-61
2023/05/12 03:12:45;;;;;;;7.87;2.97;;;;;;;10.15;46.36;100904.00;4240982;28;21266;-58
2023/05/12 03:15:11;;;;;;;11.00;3.00;;;;;;;10.15;46.49;100903.13;4223410;28;20365;-59
2023/05/12 03:17:38;;;;;;;9.83;2.90;;;;;;;10.22;46.17;100898.91;4230968;28;20362;-62
2023/05/12 03:20:05;;;;;;;5.80;2.70;;;;;;;10.19;46.16;100895.59;4198180;28;20236;-60
2023/05/12 03:22:32;;;;;;;10.00;3.20;;;;;;;10.20;46.59;100897.31;4225316;28;20242;-62
2023/05/12 03:24:58;;;;;;;17.07;2.93;;;;;;;10.21;46.25;100893.63;4226103;28;23583;-61
2023/05/12 03:27:25;;;;;;;8.77;2.70;;;;;;;10.30;46.06;100907.19;4222287;28;20235;-61
2023/05/12 03:29:52;;;;;;;8.87;3.43;;;;;;;10.29;46.86;100901.94;4211729;28;20308;-61
2023/05/12 03:32:18;;;;;;;9.57;3.17;;;;;;;10.34;45.74;100902.38;4217998;28;21592;-60
2023/05/12 03:34:45;;;;;;;6.00;2.90;;;;;;;10.40;45.97;100901.88;4230112;28;20450;-59
2023/05/12 03:37:11;;;;;;;7.83;2.80;;;;;;;10.39;45.69;100904.72;4203527;28;20294;-60
2023/05/12 03:39:38;;;;;;;8.73;2.90;;;;;;;10.29;46.25;100899.22;4213681;28;20254;-59
2023/05/12 03:42:05;;;;;;;7.67;2.90;;;;;;;10.39;45.91;100912.84;4221751;28;21940;-61
2023/05/12 03:44:31;;;;;;;6.23;3.00;;;;;;;10.48;45.60;100905.75;4220047;28;20465;-59
2023/05/12 03:46:58;;;;;;;7.00;2.97;;;;;;;10.51;45.50;100913.59;4216072;28;20240;-63
2023/05/12 03:49:24;;;;;;;10.77;2.93;;;;;;;10.51;45.84;100913.59;4204137;28;20248;-60
2023/05/12 03:51:51;;;;;;;5.97;2.90;;;;;;;10.55;45.46;100910.50;4201184;28;20309;-61
2023/05/12 03:54:18;;;;;;;9.60;2.83;;;;;;;10.61;45.60;100919.94;4215694;28;21482;-60
2023/05/12 03:56:45;;;;;;;4.87;2.70;;;;;;;10.58;45.67;100912.91;4194881;28;20224;-59
2023/05/12 03:59:11;;;;;;;10.67;2.70;;;;;;;10.61;45.36;100925.34;4213685;28;20240;-59
2023/05/12 04:01:38;;;;;;;9.40;2.97;;;;;;;10.63;45.66;100926.06;4216581;28;20298;-60
2023/05/12 04:04:04;;;;;;;13.43;2.87;;;;;;;10.73;45.12;100924.25;4219508;28;20972;-63
2023/05/12 04:06:31;;;;;;;7.73;2.67;;;;;;;10.77;45.08;100931.09;4219198;28;21507;-61
2023/05/12 04:08:58;;;;;;;8.77;3.00;;;;;;;10.82;45.31;100937.97;4216506;28;20306;-61
2023/05/12 04:11:24;;;;;;;9.03;3.07;;;;;;;10.84;44.60;100931.41;4211343;28;20301;-65
2023/05/12 04:13:51;;;;;;;12.57;3.17;;;;;;;10.81;45.05;100928.13;4230116;28;21733;-62
2023/05/12 04:16:17;;;;;;;9.07;3.00;;;;;;;10.91;44.87;100935.28;4223037;28;20469;-63
2023/05/12 04:18:44;;;;;;;10.83;3.00;;;;;;;10.95;44.64;100935.88;4221992;28;20565;-61
2023/05/12 04:21:11;;;;;;;10.90;2.80;;;;;;;10.95;44.76;100941.28;4199821;28;22232;-59
2023/05/12 04:23:37;;;;;;;7.13;2.67;;;;;;;11.03;44.61;100937.88;4220835;28;20229;-61
2023/05/12 04:26:04;;;;;;;6.10;2.57;;;;;;;11.10;44.44;100937.19;4213095;28;20632;-64
2023/05/12 04:28:31;;;;;;;10.23;3.17;;;;;;;11.09;44.55;100934.63;4205378;28;21816;-60
2023/05/12 04:31:03;;;;;;;14.47;2.90;;;;;;;11.15;44.32;100944.03;4217510;28;20236;-61
2023/05/12 04:33:30;;;;;;;6.97;2.73;;;;;;;11.16;44.50;100932.22;4216893;28;20242;-61
2023/05/12 04:35:57;;;;;;;10.67;2.63;;;;;;;11.18;44.66;100939.19;4209492;28;20232;-60
2023/05/12 04:38:23;;;;;;;12.80;3.30;;;;;;;11.26;44.77;100938.53;4201474;28;20242;-61
2023/05/12 04:40:50;;;;;;;10.37;2.60;;;;;;;11.36;44.02;100949.38;4211969;28;20223;-64
2023/05/12 04:43:17;;;;;;;8.30;2.80;;;;;;;11.42;44.15;100946.09;4214059;28;20454;-61
2023/05/12 04:45:46;;;;;;;11.60;3.20;;;;;;;11.49;44.21;100943.69;4204171;28;21679;-58
2023/05/12 04:48:12;;;;;;;12.40;3.10;;;;;;;11.63;44.15;100945.16;4209769;28;21700;-61
2023/05/12 04:50:39;;;;;;;6.37;3.07;;;;;;;11.64;43.67;100949.53;4212032;28;20406;-60
2023/05/12 04:53:06;;;;;;;9.63;3.13;;;;;;;11.64;43.44;100953.13;4210754;28;20334;-60
2023/05/12 04:55:32;;;;;;;8.67;3.07;;;;;;;11.70;44.08;100947.13;4216988;28;20614;-62
2023/05/12 04:57:59;;;;;;;9.50;2.70;;;;;;;11.76;44.04;100955.69;4206170;28;22257;-59
2023/05/12 05:00:25;;;;;;;7.83;3.10;;;;;;;11.80;43.59;100946.28;4198656;28;25700;-63
2023/05/12 05:02:52;;;;;;;7.10;2.80;;;;;;;11.92;43.85;100947.00;4209847;28;21800;-62
2023/05/12 05:05:18;;;;;;;6.50;2.73;;;;;;;11.98;43.92;100950.00;4204665;28;22627;-60
2023/05/12 05:07:45;;;;;;;4.93;2.83;;;;;;;12.20;43.16;100950.69;4237534;28;20565;-62
2023/05/12 05:10:12;;;;;;;9.60;3.30;;;;;;;12.27;43.33;100950.97;4215317;28;20232;-61
2023/05/12 05:12:38;;;;;;;13.63;2.80;;;;;;;12.32;43.38;100951.38;4216380;28;20231;-60
2023/05/12 05:15:06;;;;;;;7.70;2.80;;;;;;;12.35;43.55;100961.97;4214007;28;20235;-60
2023/05/12 05:17:32;;;;;;;5.83;2.90;;;;;;;12.51;43.73;100956.78;4202075;28;20232;-52
2023/05/12 05:19:59;;;;;;;5.27;2.90;;;;;;;12.68;42.69;100959.72;4219181;28;20313;-64
2023/05/12 05:22:26;;;;;;;8.77;3.13;;;;;;;12.68;42.72;100957.84;4223241;28;20244;-66
2023/05/12 05:24:52;;;;;;;11.70;2.80;;;;;;;12.73;42.85;100965.56;4208140;28;20228;-64
2023/05/12 05:27:19;;;;;;;6.50;3.40;;;;;;;12.91;42.72;100967.50;4208604;28;20316;-65
2023/05/12 05:29:46;;;;;;;9.87;2.87;;;;;;;12.89;43.94;100967.63;4211749;28;20232;-67
2023/05/12 05:32:12;;;;;;;10.17;2.80;;;;;;;13.10;42.36;100958.41;4214546;28;20708;-69
2023/05/12 05:34:39;;;;;;;10.73;2.90;;;;;;;13.29;42.10;100968.31;4220774;28;20549;-65
2023/05/12 05:37:05;;;;;;;9.33;3.57;;;;;;;13.57;41.99;100971.88;4202370;28;20252;-67
2023/05/12 05:39:32;;;;;;;10.20;3.10;;;;;;;13.95;40.64;100974.47;4213921;28;20306;-66
2023/05/12 05:41:58;;;;;;;10.03;3.07;;;;;;;14.18;40.68;100972.09;4218327;28;24022;-67
2023/05/12 05:44:25;;;;;;;14.83;3.10;;;;;;;14.56;39.83;100971.84;4213786;28;20234;-69
2023/05/12 05:46:51;;;;;;;18.67;3.30;;;;;;;15.27;38.88;100979.91;4214816;28;20243;-68
2023/05/12 05:49:18;;;;;;;13.57;3.03;;;;;;;16.10;38.16;100979.06;4222165;28;20467;-67
2023/05/12 05:51:45;;;;;;;14.00;3.50;;;;;;;16.26;36.71;100969.16;4223554;28;25206;-68
2023/05/12 05:54:11;;;;;;;9.97;2.50;;;;;;;17.06;35.36;100978.41;4208827;28;20236;-70
2023/05/12 05:56:38;;;;;;;7.50;2.90;;;;;;;17.69;34.06;100982.00;4225482;28;20793;-68
2023/05/12 05:59:05;;;;;;;7.73;3.00;;;;;;;17.42;34.10;100975.16;4231452;28;21221;-67
2023/05/12 06:01:31;;;;;;;12.07;3.10;;;;;;;17.87;33.14;100970.75;4228609;28;21191;-66
2023/05/12 06:03:58;;;;;;;10.80;3.30;;;;;;;17.76;33.78;100984.03;4214251;28;22581;-65
2023/05/12 06:06:25;;;;;;;8.70;3.03;;;;;;;18.83;31.72;100980.38;4226977;28;20528;-68
2023/05/12 06:08:54;;;;;;;10.40;3.27;;;;;;;19.56;30.68;100988.72;4239012;28;21765;-67
2023/05/12 06:11:21;;;;;;;8.40;2.70;;;;;;;18.75;31.94;100986.78;4259037;28;20361;-67
2023/05/12 06:13:48;;;;;;;9.20;2.73;;;;;;;19.21;31.28;100987.66;4223035;28;20238;-69
2023/05/12 06:16:15;;;;;;;9.83;2.90;;;;;;;20.31;29.73;100993.09;4243307;28;20290;-71
2023/05/12 06:18:41;;;;;;;15.27;2.97;;;;;;;20.80;28.90;100992.25;4222290;28;20408;-70
2023/05/12 06:21:08;;;;;;;12.27;2.80;;;;;;;19.88;30.37;100985.72;4222131;28;20233;-68
2023/05/12 06:23:35;;;;;;;10.13;2.90;;;;;;;20.69;29.18;100990.88;4219687;28;20254;-68
2023/05/12 06:26:02;;;;;;;10.17;2.90;;;;;;;20.18;29.87;100989.19;4241631;28;22143;-67
2023/05/12 06:28:28;;;;;;;10.87;2.70;;;;;;;21.07;28.95;100988.81;4240272;28;20227;-70
2023/05/12 06:30:55;;;;;;;12.43;3.23;;;;;;;21.28;28.75;100991.44;4207023;28;20288;-65
2023/05/12 06:33:22;;;;;;;8.57;2.83;;;;;;;22.63;26.18;100987.91;4229100;28;20238;-66
2023/05/12 06:35:49;;;;;;;10.90;3.07;;;;;;;21.00;28.71;100992.34;4220982;28;20244;-65
2023/05/12 06:38:15;;;;;;;6.73;2.40;;;;;;;21.04;28.21;100985.38;4206824;28;20343;-66
2023/05/12 06:40:42;;;;;;;6.73;2.23;;;;;;;20.90;28.69;100997.38;4216694;28;20320;-68
2023/05/12 06:43:08;;;;;;;7.90;2.77;;;;;;;22.12;27.30;100986.59;4201204;28;21835;-69
2023/05/12 06:45:35;;;;;;;6.73;2.47;;;;;;;21.41;27.88;100995.28;4209978;28;20234;-68
2023/05/12 06:48:04;;;;;;;3.93;2.23;;;;;;;21.77;27.98;100999.69;4219614;28;20456;-69
2023/05/12 06:50:31;;;;;;;6.80;2.43;;;;;;;21.07;28.41;100991.56;4213005;28;20347;-69
2023/05/12 06:52:57;;;;;;;12.30;2.50;;;;;;;21.03;28.78;100996.63;4222749;28;22223;-68
2023/05/12 06:55:24;;;;;;;8.20;2.43;;;;;;;20.82;28.74;100995.63;4219272;28;20290;-69
2023/05/12 06:57:54;;;;;;;12.73;2.47;;;;;;;22.43;27.52;101004.47;4214424;28;21261;-63
2023/05/12 07:00:24;;;;;;;7.80;2.90;;;;;;;22.92;26.39;100998.69;4196106;28;22352;-67
2023/05/12 07:02:51;;;;;;;5.67;2.53;;;;;;;23.39;25.66;100999.41;4199915;28;20232;-66
2023/05/12 07:05:18;;;;;;;7.67;2.73;;;;;;;23.31;26.39;100991.34;4205068;28;20239;-68
2023/05/12 07:07:45;;;;;;;17.97;2.50;;;;;;;22.79;26.66;100988.53;4214234;28;20309;-66
2023/05/12 07:10:12;;;;;;;9.97;2.70;;;;;;;22.78;26.95;100993.16;4213416;28;25875;-67
2023/05/12 07:12:38;;;;;;;6.60;2.73;;;;;;;23.50;25.75;100999.78;4209676;28;20240;-66
2023/05/12 07:15:06;;;;;;;12.33;2.87;;;;;;;22.78;26.70;100987.66;4211986;28;21697;-65
2023/05/12 07:17:32;;;;;;;7.97;2.20;;;;;;;21.68;28.33;101002.63;4207122;28;21747;-67
2023/05/12 07:19:59;;;;;;;7.97;2.47;;;;;;;22.39;26.97;101002.34;4214249;28;21312;-67
2023/05/12 07:22:26;;;;;;;5.67;2.10;;;;;;;22.75;27.12;100999.13;4210349;28;20351;-66
2023/05/12 07:24:52;;;;;;;8.27;2.00;;;;;;;22.62;27.12;100994.47;4210655;28;25449;-64
2023/05/12 07:27:19;;;;;;;5.77;2.40;;;;;;;22.43;27.29;100992.59;4216486;28;21710;-69
2023/05/12 07:29:45;;;;;;;11.40;2.03;;;;;;;21.87;27.50;100999.28;4214760;28;21803;-67
2023/05/12 07:32:12;;;;;;;5.37;1.87;;;;;;;21.68;27.57;100993.53;4217435;28;20235;-65
2023/05/12 07:34:38;;;;;;;7.53;1.80;;;;;;;21.11;28.08;100992.81;4225282;28;21571;-71
2023/05/12 07:37:05;;;;;;;5.97;1.90;;;;;;;20.82;28.49;100984.63;4246725;28;20238;-69
2023/05/12 07:39:32;;;;;;;4.63;2.10;;;;;;;20.98;29.12;100988.09;4226048;28;20231;-67
2023/05/12 07:41:58;;;;;;;8.17;2.60;;;;;;;21.03;28.96;100991.09;4217439;28;20828;-68
2023/05/12 07:44:26;;;;;;;4.67;2.30;;;;;;;20.94;28.58;100984.91;4224486;28;20235;-71
2023/05/12 07:46:53;;;;;;;10.33;2.27;;;;;;;20.14;28.99;100995.28;4230021;28;20236;-66
2023/05/12 07:49:22;;;;;;;9.90;2.60;;;;;;;19.74;29.20;100999.28;4212035;28;20454;-70
2023/05/12 07:51:48;;;;;;;6.30;2.07;;;;;;;19.22;29.99;100989.34;4210094;28;20262;-67
2023/05/12 07:54:15;;;;;;;5.53;2.10;;;;;;;19.80;30.27;100997.66;4222965;28;20228;-69
2023/05/12 07:56:41;;;;;;;16.07;2.20;;;;;;;19.93;29.90;101002.47;4227967;28;20415;-69
2023/05/12 07:59:08;;;;;;;7.20;2.37;;;;;;;20.59;29.22;100991.19;4229137;28;23574;-69
2023/05/12 08:01:34;;;;;;;13.13;2.27;;;;;;;20.16;28.90;101002.28;4216417;28;20617;-71
2023/05/12 08:04:01;;;;;;;9.37;2.60;;;;;;;20.07;29.02;101003.44;4221593;28;21195;-68
2023/05/12 08:06:27;;;;;;;14.17;2.33;;;;;;;20.22;28.89;101001.47;4222259;28;20232;-66
2023/05/12 08:08:56;;;;;;;8.83;2.00;;;;;;;20.56;27.65;100996.25;4207237;28;20319;-68
2023/05/12 08:11:26;;;;;;;11.97;2.60;;;;;;;19.31;29.08;101004.69;4207991;28;20354;-68
2023/05/12 08:13:52;;;;;;;6.87;2.37;;;;;;;19.43;28.88;100999.56;4233103;28;21423;-67
2023/05/12 08:16:19;;;;;;;14.97;2.60;;;;;;;19.41;28.05;101004.38;4228027;28;20827;-68
2023/05/12 08:18:46;;;;;;;7.93;1.93;;;;;;;19.21;27.67;101001.38;4216040;28;20235;-69
2023/05/12 08:21:12;;;;;;;8.20;2.53;;;;;;;19.00;28.51;100995.63;4222381;28;20681;-65
2023/05/12 08:23:40;;;;;;;10.40;2.22;;;;;;;19.34;28.30;100992.47;4209598;28;22220;-67
2023/05/12 08:26:07;;;;;;;8.57;2.13;;;;;;;19.62;27.96;100993.44;4221565;28;20294;-68
2023/05/12 08:28:34;;;;;;;10.33;2.53;;;;;;;19.80;28.17;101011.41;4228501;28;20648;-69
2023/05/12 08:31:01;;;;;;;8.37;2.20;;;;;;;19.98;27.24;100997.25;4216043;28;20632;-64
2023/05/12 08:33:30;;;;;;;10.77;2.47;;;;;;;19.69;26.60;100993.53;4218099;28;20873;-70
2023/05/12 08:35:57;;;;;;;8.90;2.23;;;;;;;19.69;26.71;101003.66;4225618;28;20236;-67
2023/05/12 08:38:23;;;;;;;8.17;2.43;;;;;;;20.16;26.23;100985.78;4227674;28;23376;-68
2023/05/12 08:41:18;;;;;;;7.60;2.40;;;;;;;20.03;25.88;100994.75;4210673;28;20258;-68
2023/05/12 08:43:49;;;;;;;7.10;2.70;;;;;;;19.99;24.98;101000.81;4207660;28;20320;-68
2023/05/12 08:46:15;;;;;;;12.00;2.53;;;;;;;19.87;24.95;101005.97;4212312;28;21214;-67
2023/05/12 08:48:46;;;;;;;11.60;2.40;;;;;;;19.72;25.20;100993.13;4206131;28;20256;-68
2023/05/12 08:51:13;;;;;;;7.83;1.73;;;;;;;19.43;26.14;101008.63;4207404;28;21146;-67
2023/05/12 08:53:41;;;;;;;6.97;2.03;;;;;;;19.47;25.71;101000.88;4219343;28;20263;-69
2023/05/12 08:56:09;;;;;;;5.60;2.20;;;;;;;19.52;25.80;100997.53;4203473;28;20638;-68
2023/05/12 08:58:41;;;;;;;4.90;1.97;;;;;;;19.35;26.09;100992.28;4199883;28;20312;-68
2023/05/12 09:01:10;;;;;;;8.43;2.53;;;;;;;19.29;26.26;100987.56;4229747;28;20229;-67
2023/05/12 09:03:37;;;;;;;13.90;2.50;;;;;;;19.12;27.26;100985.00;4209314;28;20249;-69
2023/05/12 09:06:05;;;;;;;4.73;2.10;;;;;;;19.19;26.60;100996.09;4205049;28;22586;-67
2023/05/12 09:08:33;;;;;;;9.87;2.33;;;;;;;19.15;26.74;100981.91;4206619;28;20360;-68
2023/05/12 09:11:01;;;;;;;12.13;2.57;;;;;;;18.83;27.19;100985.84;4203285;28;20649;-66
2023/05/12 09:13:39;;;;;;;4.97;1.93;;;;;;;18.94;27.28;100995.53;4218415;28;20252;-68
2023/05/12 09:16:10;;;;;;;12.23;1.90;;;;;;;18.83;27.56;100988.59;4214204;28;20244;-70
2023/05/12 09:18:47;;;;;;;4.00;2.00;;;;;;;18.85;27.23;100984.63;4216095;28;20227;-68
2023/05/12 09:21:14;;;;;;;6.30;2.07;;;;;;;18.61;27.18;100985.75;4217929;28;21193;-68
2023/05/12 09:23:51;;;;;;;8.57;2.10;;;;;;;18.66;27.66;100983.28;4206392;28;23052;-68
2023/05/12 09:26:17;;;;;;;3.57;1.77;;;;;;;18.63;26.79;100971.84;4200112;28;20518;-69
2023/05/12 09:28:44;;;;;;;11.20;2.20;;;;;;;18.79;26.27;100979.03;4210564;28;20306;-67
2023/05/12 09:31:17;;;;;;;6.73;2.20;;;;;;;19.15;26.09;100964.56;4205013;28;21382;-67
2023/05/12 09:33:44;;;;;;;14.23;2.37;;;;;;;19.09;26.64;100982.66;4215320;28;20595;-70
2023/05/12 09:36:19;;;;;;;10.17;2.13;;;;;;;18.51;26.70;100985.16;4205196;28;20235;-71
2023/05/12 09:38:46;;;;;;;12.00;2.00;;;;;;;18.73;27.04;100969.66;4210863;28;20235;-65
2023/05/12 09:41:12;;;;;;;7.60;2.23;;;;;;;18.75;26.82;100980.47;4218336;28;20303;-75
2023/05/12 09:43:45;;;;;;;8.33;2.23;;;;;;;19.08;27.42;100969.13;4235819;28;20223;-49
2023/05/12 09:46:13;;;;;;;8.10;2.20;;;;;;;19.08;26.70;100983.69;4216742;28;20270;-65
2023/05/12 09:48:39;;;;;;;8.47;2.00;;;;;;;18.92;26.70;100976.50;4226331;28;23594;-67
2023/05/12 09:51:09;;;;;;;11.33;2.00;;;;;;;18.89;26.60;100974.13;4220033;28;20241;-69
2023/05/12 09:53:41;;;;;;;7.00;1.90;;;;;;;18.64;27.08;100957.94;4216345;28;20666;-67
2023/05/12 09:56:08;;;;;;;12.53;3.00;;;;;;;18.82;27.33;100967.69;4202567;28;20256;-65
2023/05/12 09:58:35;;;;;;;7.83;2.03;;;;;;;18.65;26.41;100967.88;4217134;28;22196;-65
2023/05/12 10:01:02;;;;;;;10.13;2.60;;;;;;;18.63;27.08;100969.94;4222063;28;20237;-65
2023/05/12 10:03:53;;;;;;;8.57;2.10;;;;;;;18.68;26.78;100963.88;4209764;28;20378;-65
2023/05/12 10:06:29;;;;;;;6.33;2.20;;;;;;;19.09;26.75;100971.69;4205927;28;20248;-65
2023/05/12 10:09:05;;;;;;;12.67;2.00;;;;;;;19.11;26.79;100969.59;4218940;28;21733;-76
2023/05/12 10:11:34;;;;;;;5.60;2.00;;;;;;;19.21;26.52;100968.44;4213067;28;22086;-71
2023/05/12 10:14:01;;;;;;;7.17;2.23;;;;;;;19.17;26.66;100970.72;4205484;28;20255;-64
2023/05/12 10:16:27;;;;;;;4.13;2.00;;;;;;;19.22;27.16;100967.41;4219311;28;23305;-68
2023/05/12 10:18:55;;;;;;;9.90;2.63;;;;;;;19.18;26.27;100957.88;4228799;28;20234;-69
2023/05/12 10:21:23;;;;;;;8.23;2.00;;;;;;;19.23;26.20;100963.63;4219195;28;22268;-66
2023/05/12 10:23:51;;;;;;;4.20;1.77;;;;;;;19.27;25.88;100965.78;4220660;28;20277;-68
2023/05/12 10:26:17;;;;;;;11.00;2.00;;;;;;;19.42;26.22;100960.25;4220938;28;20236;-67
2023/05/12 10:28:44;;;;;;;6.93;1.90;;;;;;;19.05;25.95;100964.03;4259974;28;20657;-65
2023/05/12 10:31:11;;;;;;;2.80;1.70;;;;;;;18.93;27.59;100952.69;4208195;28;20638;-68
2023/05/12 10:33:38;;;;;;;10.23;2.00;;;;;;;19.09;26.37;100957.09;4224992;28;21287;-68
2023/05/12 10:36:15;;;;;;;11.63;2.73;;;;;;;19.38;26.68;100958.09;4215175;28;20254;-67
2023/05/12 10:38:42;;;;;;;5.53;2.00;;;;;;;18.99;26.09;100966.50;4211362;28;20239;-67
2023/05/12 10:41:08;;;;;;;7.87;2.27;;;;;;;18.97;26.47;100967.69;4220137;28;21668;-66
2023/05/12 10:43:44;;;;;;;9.47;1.93;;;;;;;19.28;26.26;100950.16;4207034;28;20274;-67
2023/05/12 10:46:16;;;;;;;8.50;2.10;;;;;;;19.32;26.09;100959.72;4205296;28;23098;-66
2023/05/12 10:48:58;;;;;;;6.97;2.17;;;;;;;19.52;25.15;100968.22;4220366;28;23565;-69
2023/05/12 10:51:29;;;;;;;7.50;1.70;;;;;;;19.24;24.46;100968.91;4215379;28;20243;-68
2023/05/12 10:54:04;;;;;;;7.17;1.87;;;;;;;19.11;24.92;100960.50;4215838;28;20540;-65
2023/05/12 10:56:37;;;;;;;11.87;2.00;;;;;;;19.56;25.40;100955.78;4205195;28;20627;-67
2023/05/12 10:59:17;;;;;;;9.27;1.83;;;;;;;19.60;25.16;100956.25;4214014;28;20303;-65
2023/05/12 11:02:23;;;;;;;10.23;1.80;;;;;;;19.31;25.20;100942.38;4231318;28;20238;-64
2023/05/12 11:04:54;;;;;;;7.40;1.80;;;;;;;19.43;24.74;100945.50;4216127;28;20409;-65
2023/05/12 11:07:26;;;;;;;11.37;2.00;;;;;;;19.55;25.72;100958.72;4236628;28;20232;-66
2023/05/12 11:09:54;;;;;;;6.27;1.70;;;;;;;19.44;24.96;100952.69;4252058;28;22263;-65
2023/05/12 11:12:34;;;;;;;6.97;1.60;;;;;;;19.68;24.65;100952.50;4221702;28;22918;-66
2023/05/12 11:15:02;;;;;;;5.10;2.00;;;;;;;19.52;25.33;100942.63;4218185;28;20320;-63
2023/05/12 11:17:28;;;;;;;6.63;1.93;;;;;;;19.75;26.07;100950.69;4265523;28;20226;-65
2023/05/12 11:19:55;;;;;;;10.97;1.90;;;;;;;19.96;26.75;100947.13;4239458;28;20636;-64
2023/05/12 11:22:22;;;;;;;4.43;1.80;;;;;;;19.89;25.74;100949.81;4213048;28;20288;-63
2023/05/12 11:24:51;;;;;;;10.17;2.30;;;;;;;20.15;26.89;100942.00;4204319;28;22263;-65